sensor_id;sensor_type;location;lat;lon;timestamp;P1;durP1;ratioP1;P2;durP2;ratioP2
77322;SDS011;66384;51.052;9.850;2023-08-31T00:00:53;7.00;;;3.80;;
77322;SDS011;66384;51.052;9.850;2023-08-31T00:03:31;4.80;;;3.50;;
77322;SDS011;66384;51.052;9.850;2023-08-31T00:06:03;4.40;;;3.60;;
77322;SDS011;66384;51.052;9.850;2023-08-31T00:08:36;5.40;;;3.80;;
77322;SDS011;66384;51.052;9.850;2023-08-31T00:11:08;5.10;;;3.70;;
77322;SDS011;66384;51.052;9.850;2023-08-31T00:13:40;4.80;;;3.70;;
77322;SDS011;66384;51.052;9.850;2023-08-31T00:16:11;6.80;;;4.20;;
77322;SDS011;66384;51.052;9.850;2023-08-31T00:18:43;5.90;;;4.70;;
77322;SDS011;66384;51.052;9.850;2023-08-31T00:21:15;6.60;;;4.80;;
77322;SDS011;66384;51.052;9.850;2023-08-31T00:23:46;6.00;;;4.80;;
77322;SDS011;66384;51.052;9.850;2023-08-31T00:26:18;5.70;;;4.50;;
77322;SDS011;66384;51.052;9.850;2023-08-31T00:28:49;4.70;;;4.30;;
77322;SDS011;66384;51.052;9.850;2023-08-31T00:31:22;5.70;;;4.30;;
77322;SDS011;66384;51.052;9.850;2023-08-31T00:33:56;8.60;;;4.50;;
77322;SDS011;66384;51.052;9.850;2023-08-31T00:36:31;7.00;;;4.90;;
77322;SDS011;66384;51.052;9.850;2023-08-31T00:39:04;6.40;;;5.00;;
77322;SDS011;66384;51.052;9.850;2023-08-31T00:41:39;7.50;;;5.10;;
77322;SDS011;66384;51.052;9.850;2023-08-31T00:44:10;7.40;;;5.70;;
77322;SDS011;66384;51.052;9.850;2023-08-31T00:46:42;8.00;;;5.50;;
77322;SDS011;66384;51.052;9.850;2023-08-31T00:49:13;7.00;;;5.70;;
77322;SDS011;66384;51.052;9.850;2023-08-31T00:51:46;11.10;;;6.10;;
77322;SDS011;66384;51.052;9.850;2023-08-31T00:54:19;8.40;;;6.30;;
77322;SDS011;66384;51.052;9.850;2023-08-31T00:56:53;8.70;;;5.80;;
77322;SDS011;66384;51.052;9.850;2023-08-31T00:59:26;7.40;;;5.80;;
77322;SDS011;66384;51.052;9.850;2023-08-31T01:02:00;8.70;;;5.50;;
77322;SDS011;66384;51.052;9.850;2023-08-31T01:04:46;6.20;;;5.10;;
77322;SDS011;66384;51.052;9.850;2023-08-31T01:07:28;10.00;;;6.50;;
77322;SDS011;66384;51.052;9.850;2023-08-31T01:10:11;8.20;;;5.60;;
77322;SDS011;66384;51.052;9.850;2023-08-31T01:12:53;6.70;;;5.20;;
77322;SDS011;66384;51.052;9.850;2023-08-31T01:15:31;6.00;;;4.80;;
77322;SDS011;66384;51.052;9.850;2023-08-31T01:18:04;6.90;;;5.40;;
77322;SDS011;66384;51.052;9.850;2023-08-31T01:20:50;6.80;;;5.50;;
77322;SDS011;66384;51.052;9.850;2023-08-31T01:23:29;8.80;;;6.30;;
77322;SDS011;66384;51.052;9.850;2023-08-31T01:26:07;8.00;;;5.80;;
77322;SDS011;66384;51.052;9.850;2023-08-31T01:28:39;6.90;;;5.70;;
77322;SDS011;66384;51.052;9.850;2023-08-31T01:31:11;6.50;;;5.80;;
77322;SDS011;66384;51.052;9.850;2023-08-31T01:33:43;11.00;;;5.50;;
77322;SDS011;66384;51.052;9.850;2023-08-31T01:36:18;6.80;;;6.10;;
77322;SDS011;66384;51.052;9.850;2023-08-31T01:38:55;8.60;;;6.30;;
77322;SDS011;66384;51.052;9.850;2023-08-31T01:41:33;6.80;;;5.40;;
77322;SDS011;66384;51.052;9.850;2023-08-31T01:44:08;14.30;;;5.30;;
77322;SDS011;66384;51.052;9.850;2023-08-31T01:46:45;7.50;;;5.00;;
77322;SDS011;66384;51.052;9.850;2023-08-31T01:49:21;8.20;;;5.30;;
77322;SDS011;66384;51.052;9.850;2023-08-31T01:51:53;6.60;;;5.70;;
77322;SDS011;66384;51.052;9.850;2023-08-31T01:54:24;7.10;;;5.80;;
77322;SDS011;66384;51.052;9.850;2023-08-31T01:56:56;7.00;;;5.30;;
77322;SDS011;66384;51.052;9.850;2023-08-31T01:59:28;6.30;;;5.00;;
77322;SDS011;66384;51.052;9.850;2023-08-31T02:02:03;8.90;;;5.30;;
77322;SDS011;66384;51.052;9.850;2023-08-31T02:04:43;6.70;;;5.20;;
77322;SDS011;66384;51.052;9.850;2023-08-31T02:07:15;8.10;;;5.50;;
77322;SDS011;66384;51.052;9.850;2023-08-31T02:09:47;6.00;;;5.10;;
77322;SDS011;66384;51.052;9.850;2023-08-31T02:12:19;6.80;;;5.50;;
77322;SDS011;66384;51.052;9.850;2023-08-31T02:14:51;6.10;;;5.30;;
77322;SDS011;66384;51.052;9.850;2023-08-31T02:17:23;7.30;;;4.90;;
77322;SDS011;66384;51.052;9.850;2023-08-31T02:19:55;6.40;;;5.20;;
77322;SDS011;66384;51.052;9.850;2023-08-31T02:22:26;8.00;;;5.60;;
77322;SDS011;66384;51.052;9.850;2023-08-31T02:25:00;7.80;;;5.40;;
77322;SDS011;66384;51.052;9.850;2023-08-31T02:27:31;6.20;;;5.50;;
77322;SDS011;66384;51.052;9.850;2023-08-31T02:30:04;7.70;;;5.70;;
77322;SDS011;66384;51.052;9.850;2023-08-31T02:32:37;7.30;;;5.80;;
77322;SDS011;66384;51.052;9.850;2023-08-31T02:35:09;8.10;;;6.10;;
77322;SDS011;66384;51.052;9.850;2023-08-31T02:37:41;7.40;;;5.80;;
77322;SDS011;66384;51.052;9.850;2023-08-31T02:40:12;7.00;;;5.10;;
77322;SDS011;66384;51.052;9.850;2023-08-31T02:42:44;8.00;;;6.00;;
77322;SDS011;66384;51.052;9.850;2023-08-31T02:45:16;6.50;;;5.70;;
77322;SDS011;66384;51.052;9.850;2023-08-31T02:47:48;8.90;;;5.70;;
77322;SDS011;66384;51.052;9.850;2023-08-31T02:50:20;9.20;;;6.60;;
77322;SDS011;66384;51.052;9.850;2023-08-31T02:52:51;7.00;;;5.80;;
77322;SDS011;66384;51.052;9.850;2023-08-31T02:55:23;8.10;;;5.90;;
77322;SDS011;66384;51.052;9.850;2023-08-31T02:57:54;7.80;;;6.10;;
77322;SDS011;66384;51.052;9.850;2023-08-31T03:00:26;7.80;;;6.00;;
77322;SDS011;66384;51.052;9.850;2023-08-31T03:02:57;8.40;;;6.10;;
77322;SDS011;66384;51.052;9.850;2023-08-31T03:05:29;6.60;;;5.90;;
77322;SDS011;66384;51.052;9.850;2023-08-31T03:08:01;9.00;;;6.10;;
77322;SDS011;66384;51.052;9.850;2023-08-31T03:10:33;9.80;;;6.40;;
77322;SDS011;66384;51.052;9.850;2023-08-31T03:13:05;8.10;;;5.90;;
77322;SDS011;66384;51.052;9.850;2023-08-31T03:15:36;7.30;;;5.80;;
77322;SDS011;66384;51.052;9.850;2023-08-31T03:18:09;9.20;;;5.40;;
77322;SDS011;66384;51.052;9.850;2023-08-31T03:20:40;6.50;;;5.40;;
77322;SDS011;66384;51.052;9.850;2023-08-31T03:23:12;6.20;;;4.60;;
77322;SDS011;66384;51.052;9.850;2023-08-31T03:25:43;7.90;;;5.60;;
77322;SDS011;66384;51.052;9.850;2023-08-31T03:28:16;7.00;;;4.70;;
77322;SDS011;66384;51.052;9.850;2023-08-31T03:30:47;9.00;;;5.80;;
77322;SDS011;66384;51.052;9.850;2023-08-31T03:33:25;8.00;;;5.80;;
77322;SDS011;66384;51.052;9.850;2023-08-31T03:36:00;10.20;;;6.10;;
77322;SDS011;66384;51.052;9.850;2023-08-31T03:38:33;6.90;;;5.50;;
77322;SDS011;66384;51.052;9.850;2023-08-31T03:41:07;9.20;;;5.60;;
77322;SDS011;66384;51.052;9.850;2023-08-31T03:43:38;7.40;;;5.80;;
77322;SDS011;66384;51.052;9.850;2023-08-31T03:46:10;8.40;;;5.80;;
77322;SDS011;66384;51.052;9.850;2023-08-31T03:48:42;8.70;;;6.30;;
77322;SDS011;66384;51.052;9.850;2023-08-31T03:51:13;7.70;;;5.60;;
77322;SDS011;66384;51.052;9.850;2023-08-31T03:53:45;8.40;;;6.20;;
77322;SDS011;66384;51.052;9.850;2023-08-31T03:56:16;8.10;;;6.00;;
77322;SDS011;66384;51.052;9.850;2023-08-31T03:58:48;8.10;;;5.00;;
77322;SDS011;66384;51.052;9.850;2023-08-31T04:01:20;7.60;;;5.40;;
77322;SDS011;66384;51.052;9.850;2023-08-31T04:03:52;6.30;;;4.70;;
77322;SDS011;66384;51.052;9.850;2023-08-31T04:06:23;7.50;;;5.80;;
77322;SDS011;66384;51.052;9.850;2023-08-31T04:08:57;7.10;;;5.20;;
77322;SDS011;66384;51.052;9.850;2023-08-31T04:11:28;7.50;;;4.60;;
77322;SDS011;66384;51.052;9.850;2023-08-31T04:14:00;7.20;;;5.80;;
77322;SDS011;66384;51.052;9.850;2023-08-31T04:16:31;8.80;;;5.50;;
77322;SDS011;66384;51.052;9.850;2023-08-31T04:19:03;7.20;;;5.60;;
77322;SDS011;66384;51.052;9.850;2023-08-31T04:21:35;7.10;;;5.30;;
77322;SDS011;66384;51.052;9.850;2023-08-31T04:24:07;6.00;;;5.30;;
77322;SDS011;66384;51.052;9.850;2023-08-31T04:26:39;7.10;;;5.00;;
77322;SDS011;66384;51.052;9.850;2023-08-31T04:29:10;7.10;;;5.10;;
77322;SDS011;66384;51.052;9.850;2023-08-31T04:31:42;8.30;;;5.80;;
77322;SDS011;66384;51.052;9.850;2023-08-31T04:34:13;8.80;;;5.60;;
77322;SDS011;66384;51.052;9.850;2023-08-31T04:36:45;11.30;;;6.40;;
77322;SDS011;66384;51.052;9.850;2023-08-31T04:39:16;7.10;;;5.70;;
77322;SDS011;66384;51.052;9.850;2023-08-31T04:41:48;11.10;;;7.90;;
77322;SDS011;66384;51.052;9.850;2023-08-31T04:44:19;10.50;;;7.60;;
77322;SDS011;66384;51.052;9.850;2023-08-31T04:46:51;11.00;;;7.80;;
77322;SDS011;66384;51.052;9.850;2023-08-31T04:49:23;9.40;;;6.80;;
77322;SDS011;66384;51.052;9.850;2023-08-31T04:51:56;10.00;;;7.50;;
77322;SDS011;66384;51.052;9.850;2023-08-31T04:54:27;11.90;;;7.20;;
77322;SDS011;66384;51.052;9.850;2023-08-31T04:56:59;12.30;;;7.90;;
77322;SDS011;66384;51.052;9.850;2023-08-31T04:59:32;15.60;;;9.40;;
77322;SDS011;66384;51.052;9.850;2023-08-31T05:02:03;10.50;;;8.70;;
77322;SDS011;66384;51.052;9.850;2023-08-31T05:04:37;11.70;;;9.80;;
77322;SDS011;66384;51.052;9.850;2023-08-31T05:07:09;11.20;;;8.40;;
77322;SDS011;66384;51.052;9.850;2023-08-31T05:09:40;11.40;;;8.10;;
77322;SDS011;66384;51.052;9.850;2023-08-31T05:12:12;9.90;;;8.30;;
77322;SDS011;66384;51.052;9.850;2023-08-31T05:14:44;10.80;;;8.20;;
77322;SDS011;66384;51.052;9.850;2023-08-31T05:17:15;9.70;;;7.80;;
77322;SDS011;66384;51.052;9.850;2023-08-31T05:19:47;11.40;;;8.40;;
77322;SDS011;66384;51.052;9.850;2023-08-31T05:22:19;14.40;;;7.90;;
77322;SDS011;66384;51.052;9.850;2023-08-31T05:24:51;15.20;;;8.00;;
77322;SDS011;66384;51.052;9.850;2023-08-31T05:27:22;11.10;;;7.80;;
77322;SDS011;66384;51.052;9.850;2023-08-31T05:29:54;15.10;;;8.20;;
77322;SDS011;66384;51.052;9.850;2023-08-31T05:32:28;11.20;;;7.70;;
77322;SDS011;66384;51.052;9.850;2023-08-31T05:35:00;14.80;;;8.60;;
77322;SDS011;66384;51.052;9.850;2023-08-31T05:37:33;12.00;;;7.50;;
77322;SDS011;66384;51.052;9.850;2023-08-31T05:40:06;10.30;;;7.40;;
77322;SDS011;66384;51.052;9.850;2023-08-31T05:42:39;10.50;;;8.00;;
77322;SDS011;66384;51.052;9.850;2023-08-31T05:45:11;11.00;;;8.70;;
77322;SDS011;66384;51.052;9.850;2023-08-31T05:47:44;10.50;;;8.30;;
77322;SDS011;66384;51.052;9.850;2023-08-31T05:50:16;11.20;;;8.00;;
77322;SDS011;66384;51.052;9.850;2023-08-31T05:52:47;10.50;;;8.50;;
77322;SDS011;66384;51.052;9.850;2023-08-31T05:55:19;9.70;;;7.80;;
77322;SDS011;66384;51.052;9.850;2023-08-31T05:57:51;10.80;;;8.20;;
77322;SDS011;66384;51.052;9.850;2023-08-31T06:00:23;10.90;;;8.30;;
77322;SDS011;66384;51.052;9.850;2023-08-31T06:02:54;11.00;;;8.70;;
77322;SDS011;66384;51.052;9.850;2023-08-31T06:05:26;11.60;;;8.40;;
77322;SDS011;66384;51.052;9.850;2023-08-31T06:08:00;10.30;;;8.40;;
77322;SDS011;66384;51.052;9.850;2023-08-31T06:10:32;8.90;;;7.20;;
77322;SDS011;66384;51.052;9.850;2023-08-31T06:13:04;11.80;;;8.50;;
77322;SDS011;66384;51.052;9.850;2023-08-31T06:15:36;9.60;;;7.30;;
77322;SDS011;66384;51.052;9.850;2023-08-31T06:18:08;9.60;;;7.60;;
77322;SDS011;66384;51.052;9.850;2023-08-31T06:20:40;9.70;;;8.10;;
77322;SDS011;66384;51.052;9.850;2023-08-31T06:23:12;12.90;;;7.60;;
77322;SDS011;66384;51.052;9.850;2023-08-31T06:25:43;10.50;;;7.30;;
77322;SDS011;66384;51.052;9.850;2023-08-31T06:28:15;10.30;;;7.40;;
77322;SDS011;66384;51.052;9.850;2023-08-31T06:30:47;12.20;;;8.10;;
77322;SDS011;66384;51.052;9.850;2023-08-31T06:33:18;7.70;;;5.50;;
77322;SDS011;66384;51.052;9.850;2023-08-31T06:35:50;8.50;;;6.80;;
77322;SDS011;66384;51.052;9.850;2023-08-31T06:38:22;10.90;;;7.40;;
77322;SDS011;66384;51.052;9.850;2023-08-31T06:40:54;8.20;;;5.90;;
77322;SDS011;66384;51.052;9.850;2023-08-31T06:43:28;9.70;;;6.70;;
77322;SDS011;66384;51.052;9.850;2023-08-31T06:46:00;9.70;;;6.20;;
77322;SDS011;66384;51.052;9.850;2023-08-31T06:48:51;9.40;;;6.40;;
77322;SDS011;66384;51.052;9.850;2023-08-31T06:51:22;9.70;;;7.30;;
77322;SDS011;66384;51.052;9.850;2023-08-31T06:53:54;9.50;;;6.60;;
77322;SDS011;66384;51.052;9.850;2023-08-31T06:56:30;6.60;;;5.50;;
77322;SDS011;66384;51.052;9.850;2023-08-31T06:59:02;7.40;;;6.50;;
77322;SDS011;66384;51.052;9.850;2023-08-31T07:01:34;8.00;;;6.30;;
77322;SDS011;66384;51.052;9.850;2023-08-31T07:04:06;10.20;;;7.00;;
77322;SDS011;66384;51.052;9.850;2023-08-31T07:06:38;7.90;;;6.70;;
77322;SDS011;66384;51.052;9.850;2023-08-31T07:09:10;7.60;;;6.30;;
77322;SDS011;66384;51.052;9.850;2023-08-31T07:11:41;8.40;;;6.80;;
77322;SDS011;66384;51.052;9.850;2023-08-31T07:14:12;8.10;;;5.50;;
77322;SDS011;66384;51.052;9.850;2023-08-31T07:16:44;8.80;;;6.10;;
77322;SDS011;66384;51.052;9.850;2023-08-31T07:19:16;8.50;;;7.30;;
77322;SDS011;66384;51.052;9.850;2023-08-31T07:21:47;7.90;;;6.10;;
77322;SDS011;66384;51.052;9.850;2023-08-31T07:24:19;8.60;;;6.60;;
77322;SDS011;66384;51.052;9.850;2023-08-31T07:26:51;7.90;;;6.00;;
77322;SDS011;66384;51.052;9.850;2023-08-31T07:29:22;7.00;;;5.80;;
77322;SDS011;66384;51.052;9.850;2023-08-31T07:31:54;6.80;;;6.00;;
77322;SDS011;66384;51.052;9.850;2023-08-31T07:34:26;6.10;;;5.50;;
77322;SDS011;66384;51.052;9.850;2023-08-31T07:36:58;6.90;;;6.20;;
77322;SDS011;66384;51.052;9.850;2023-08-31T07:39:30;7.10;;;5.70;;
77322;SDS011;66384;51.052;9.850;2023-08-31T07:42:01;8.00;;;5.80;;
77322;SDS011;66384;51.052;9.850;2023-08-31T07:44:34;8.00;;;5.10;;
77322;SDS011;66384;51.052;9.850;2023-08-31T07:47:06;5.40;;;4.60;;
77322;SDS011;66384;51.052;9.850;2023-08-31T07:49:38;6.90;;;4.20;;
77322;SDS011;66384;51.052;9.850;2023-08-31T07:52:10;5.70;;;4.30;;
77322;SDS011;66384;51.052;9.850;2023-08-31T07:54:41;5.50;;;3.90;;
77322;SDS011;66384;51.052;9.850;2023-08-31T07:57:13;9.70;;;4.20;;
77322;SDS011;66384;51.052;9.850;2023-08-31T07:59:44;4.20;;;3.30;;
77322;SDS011;66384;51.052;9.850;2023-08-31T08:02:16;6.40;;;3.80;;
77322;SDS011;66384;51.052;9.850;2023-08-31T08:04:48;5.30;;;3.10;;
77322;SDS011;66384;51.052;9.850;2023-08-31T08:07:20;5.30;;;3.50;;
77322;SDS011;66384;51.052;9.850;2023-08-31T08:09:51;4.00;;;3.50;;
77322;SDS011;66384;51.052;9.850;2023-08-31T08:12:24;5.70;;;3.10;;
77322;SDS011;66384;51.052;9.850;2023-08-31T08:14:56;4.20;;;3.20;;
77322;SDS011;66384;51.052;9.850;2023-08-31T08:17:27;6.10;;;3.80;;
77322;SDS011;66384;51.052;9.850;2023-08-31T08:19:59;6.50;;;3.80;;
77322;SDS011;66384;51.052;9.850;2023-08-31T08:22:31;7.10;;;4.20;;
77322;SDS011;66384;51.052;9.850;2023-08-31T08:25:05;6.40;;;3.20;;
77322;SDS011;66384;51.052;9.850;2023-08-31T08:27:38;4.10;;;3.00;;
77322;SDS011;66384;51.052;9.850;2023-08-31T08:30:09;6.10;;;3.20;;
77322;SDS011;66384;51.052;9.850;2023-08-31T08:32:41;5.20;;;3.40;;
77322;SDS011;66384;51.052;9.850;2023-08-31T08:35:13;4.20;;;3.10;;
77322;SDS011;66384;51.052;9.850;2023-08-31T08:37:45;7.20;;;3.20;;
77322;SDS011;66384;51.052;9.850;2023-08-31T08:40:16;3.60;;;2.50;;
77322;SDS011;66384;51.052;9.850;2023-08-31T08:42:48;4.00;;;3.00;;
77322;SDS011;66384;51.052;9.850;2023-08-31T08:45:23;4.70;;;3.00;;
77322;SDS011;66384;51.052;9.850;2023-08-31T08:47:59;4.20;;;3.00;;
77322;SDS011;66384;51.052;9.850;2023-08-31T08:50:34;4.80;;;3.30;;
77322;SDS011;66384;51.052;9.850;2023-08-31T08:53:06;4.40;;;2.90;;
77322;SDS011;66384;51.052;9.850;2023-08-31T08:55:38;4.10;;;3.00;;
77322;SDS011;66384;51.052;9.850;2023-08-31T08:58:12;4.70;;;2.70;;
77322;SDS011;66384;51.052;9.850;2023-08-31T09:00:43;3.70;;;2.90;;
77322;SDS011;66384;51.052;9.850;2023-08-31T09:03:16;3.60;;;2.80;;
77322;SDS011;66384;51.052;9.850;2023-08-31T09:05:47;6.80;;;3.00;;
77322;SDS011;66384;51.052;9.850;2023-08-31T09:08:25;4.10;;;3.30;;
77322;SDS011;66384;51.052;9.850;2023-08-31T09:10:57;4.90;;;3.20;;
77322;SDS011;66384;51.052;9.850;2023-08-31T09:13:30;5.20;;;2.80;;
77322;SDS011;66384;51.052;9.850;2023-08-31T09:16:02;4.50;;;2.70;;
77322;SDS011;66384;51.052;9.850;2023-08-31T09:18:34;3.90;;;2.90;;
77322;SDS011;66384;51.052;9.850;2023-08-31T09:21:06;3.80;;;2.70;;
77322;SDS011;66384;51.052;9.850;2023-08-31T09:23:42;4.20;;;2.80;;
77322;SDS011;66384;51.052;9.850;2023-08-31T09:26:25;4.10;;;2.50;;
77322;SDS011;66384;51.052;9.850;2023-08-31T09:28:57;5.40;;;2.60;;
77322;SDS011;66384;51.052;9.850;2023-08-31T09:31:29;5.00;;;2.80;;
77322;SDS011;66384;51.052;9.850;2023-08-31T09:34:00;3.30;;;2.30;;
77322;SDS011;66384;51.052;9.850;2023-08-31T09:36:32;7.10;;;3.30;;
77322;SDS011;66384;51.052;9.850;2023-08-31T09:39:04;4.50;;;2.40;;
77322;SDS011;66384;51.052;9.850;2023-08-31T09:41:39;4.80;;;2.80;;
77322;SDS011;66384;51.052;9.850;2023-08-31T09:44:24;3.20;;;2.40;;
77322;SDS011;66384;51.052;9.850;2023-08-31T09:46:55;5.20;;;2.80;;
77322;SDS011;66384;51.052;9.850;2023-08-31T09:49:27;3.30;;;2.40;;
77322;SDS011;66384;51.052;9.850;2023-08-31T09:52:00;4.30;;;2.30;;
77322;SDS011;66384;51.052;9.850;2023-08-31T09:54:36;2.60;;;2.10;;
77322;SDS011;66384;51.052;9.850;2023-08-31T09:57:09;3.20;;;2.60;;
77322;SDS011;66384;51.052;9.850;2023-08-31T09:59:42;5.90;;;3.00;;
77322;SDS011;66384;51.052;9.850;2023-08-31T10:02:14;3.80;;;2.60;;
77322;SDS011;66384;51.052;9.850;2023-08-31T10:04:47;3.30;;;2.70;;
77322;SDS011;66384;51.052;9.850;2023-08-31T10:07:21;3.90;;;2.90;;
77322;SDS011;66384;51.052;9.850;2023-08-31T10:09:53;3.10;;;2.30;;
77322;SDS011;66384;51.052;9.850;2023-08-31T10:12:27;4.60;;;2.70;;
77322;SDS011;66384;51.052;9.850;2023-08-31T10:15:00;5.50;;;2.60;;
77322;SDS011;66384;51.052;9.850;2023-08-31T10:17:33;3.70;;;2.30;;
77322;SDS011;66384;51.052;9.850;2023-08-31T10:20:07;3.70;;;2.70;;
77322;SDS011;66384;51.052;9.850;2023-08-31T10:22:41;4.40;;;2.50;;
77322;SDS011;66384;51.052;9.850;2023-08-31T10:25:13;3.20;;;2.20;;
77322;SDS011;66384;51.052;9.850;2023-08-31T10:27:44;4.30;;;2.60;;
77322;SDS011;66384;51.052;9.850;2023-08-31T10:30:27;4.80;;;2.70;;
77322;SDS011;66384;51.052;9.850;2023-08-31T10:35:52;2.80;;;1.80;;
77322;SDS011;66384;51.052;9.850;2023-08-31T10:38:25;7.30;;;2.80;;
77322;SDS011;66384;51.052;9.850;2023-08-31T10:41:03;2.70;;;2.30;;
77322;SDS011;66384;51.052;9.850;2023-08-31T10:43:51;4.10;;;2.20;;
77322;SDS011;66384;51.052;9.850;2023-08-31T10:46:27;3.30;;;2.10;;
77322;SDS011;66384;51.052;9.850;2023-08-31T10:49:01;3.90;;;2.80;;
77322;SDS011;66384;51.052;9.850;2023-08-31T10:51:44;4.50;;;2.50;;
77322;SDS011;66384;51.052;9.850;2023-08-31T10:54:21;5.00;;;2.40;;
77322;SDS011;66384;51.052;9.850;2023-08-31T10:57:03;3.80;;;2.30;;
77322;SDS011;66384;51.052;9.850;2023-08-31T10:59:46;4.50;;;2.10;;
77322;SDS011;66384;51.052;9.850;2023-08-31T11:02:34;8.30;;;3.90;;
77322;SDS011;66384;51.052;9.850;2023-08-31T11:05:08;3.00;;;2.20;;
77322;SDS011;66384;51.052;9.850;2023-08-31T11:07:42;4.50;;;2.10;;
77322;SDS011;66384;51.052;9.850;2023-08-31T11:10:16;2.30;;;1.80;;
77322;SDS011;66384;51.052;9.850;2023-08-31T11:12:51;5.60;;;2.30;;
77322;SDS011;66384;51.052;9.850;2023-08-31T11:15:25;6.20;;;3.10;;
77322;SDS011;66384;51.052;9.850;2023-08-31T11:17:58;5.00;;;2.10;;
77322;SDS011;66384;51.052;9.850;2023-08-31T11:20:30;4.60;;;2.70;;
77322;SDS011;66384;51.052;9.850;2023-08-31T11:23:02;7.60;;;5.70;;
77322;SDS011;66384;51.052;9.850;2023-08-31T11:25:34;5.10;;;2.00;;
77322;SDS011;66384;51.052;9.850;2023-08-31T11:28:06;6.30;;;2.20;;
77322;SDS011;66384;51.052;9.850;2023-08-31T11:30:38;2.50;;;1.90;;
77322;SDS011;66384;51.052;9.850;2023-08-31T11:33:13;4.10;;;2.30;;
77322;SDS011;66384;51.052;9.850;2023-08-31T11:35:45;3.70;;;2.60;;
77322;SDS011;66384;51.052;9.850;2023-08-31T11:38:16;4.10;;;2.50;;
77322;SDS011;66384;51.052;9.850;2023-08-31T11:40:49;3.30;;;2.20;;
77322;SDS011;66384;51.052;9.850;2023-08-31T11:43:25;16.40;;;12.70;;
77322;SDS011;66384;51.052;9.850;2023-08-31T11:45:57;15.80;;;12.20;;
77322;SDS011;66384;51.052;9.850;2023-08-31T11:48:30;7.30;;;5.50;;
77322;SDS011;66384;51.052;9.850;2023-08-31T11:51:02;22.30;;;17.20;;
77322;SDS011;66384;51.052;9.850;2023-08-31T11:53:34;5.70;;;4.40;;
77322;SDS011;66384;51.052;9.850;2023-08-31T11:56:05;4.70;;;2.50;;
77322;SDS011;66384;51.052;9.850;2023-08-31T11:58:41;6.20;;;3.70;;
77322;SDS011;66384;51.052;9.850;2023-08-31T12:01:32;4.00;;;3.00;;
77322;SDS011;66384;51.052;9.850;2023-08-31T12:04:13;4.50;;;2.90;;
77322;SDS011;66384;51.052;9.850;2023-08-31T12:06:47;7.80;;;2.30;;
77322;SDS011;66384;51.052;9.850;2023-08-31T12:09:19;4.90;;;2.00;;
77322;SDS011;66384;51.052;9.850;2023-08-31T12:11:51;4.50;;;2.50;;
77322;SDS011;66384;51.052;9.850;2023-08-31T12:14:23;4.00;;;2.00;;
77322;SDS011;66384;51.052;9.850;2023-08-31T12:17:01;4.30;;;2.30;;
77322;SDS011;66384;51.052;9.850;2023-08-31T12:19:38;3.60;;;2.30;;
77322;SDS011;66384;51.052;9.850;2023-08-31T12:22:11;3.40;;;2.40;;
77322;SDS011;66384;51.052;9.850;2023-08-31T12:24:42;4.70;;;2.30;;
77322;SDS011;66384;51.052;9.850;2023-08-31T12:27:14;3.10;;;1.80;;
77322;SDS011;66384;51.052;9.850;2023-08-31T12:29:45;4.80;;;2.20;;
77322;SDS011;66384;51.052;9.850;2023-08-31T12:32:18;4.10;;;2.60;;
77322;SDS011;66384;51.052;9.850;2023-08-31T12:34:50;3.30;;;2.40;;
77322;SDS011;66384;51.052;9.850;2023-08-31T12:37:21;5.80;;;2.30;;
77322;SDS011;66384;51.052;9.850;2023-08-31T12:39:53;3.40;;;2.00;;
77322;SDS011;66384;51.052;9.850;2023-08-31T12:42:25;3.70;;;2.90;;
77322;SDS011;66384;51.052;9.850;2023-08-31T12:44:56;3.90;;;2.20;;
77322;SDS011;66384;51.052;9.850;2023-08-31T12:47:27;2.80;;;1.80;;
77322;SDS011;66384;51.052;9.850;2023-08-31T12:49:59;3.00;;;1.90;;
77322;SDS011;66384;51.052;9.850;2023-08-31T12:52:32;3.10;;;1.80;;
77322;SDS011;66384;51.052;9.850;2023-08-31T12:55:04;4.20;;;2.10;;
77322;SDS011;66384;51.052;9.850;2023-08-31T12:57:37;4.10;;;2.00;;
77322;SDS011;66384;51.052;9.850;2023-08-31T13:00:11;3.80;;;1.90;;
77322;SDS011;66384;51.052;9.850;2023-08-31T13:02:44;4.90;;;1.90;;
77322;SDS011;66384;51.052;9.850;2023-08-31T13:05:16;2.00;;;1.70;;
77322;SDS011;66384;51.052;9.850;2023-08-31T13:07:49;3.40;;;1.60;;
77322;SDS011;66384;51.052;9.850;2023-08-31T13:10:20;4.20;;;2.40;;
77322;SDS011;66384;51.052;9.850;2023-08-31T13:12:52;4.60;;;2.10;;
77322;SDS011;66384;51.052;9.850;2023-08-31T13:15:24;3.50;;;1.80;;
77322;SDS011;66384;51.052;9.850;2023-08-31T13:17:55;3.50;;;2.40;;
77322;SDS011;66384;51.052;9.850;2023-08-31T13:20:27;3.00;;;2.00;;
77322;SDS011;66384;51.052;9.850;2023-08-31T13:23:00;3.70;;;2.80;;
77322;SDS011;66384;51.052;9.850;2023-08-31T13:25:32;2.90;;;1.50;;
77322;SDS011;66384;51.052;9.850;2023-08-31T13:28:05;4.50;;;3.20;;
77322;SDS011;66384;51.052;9.850;2023-08-31T13:30:36;5.10;;;2.30;;
77322;SDS011;66384;51.052;9.850;2023-08-31T13:33:09;2.80;;;2.00;;
77322;SDS011;66384;51.052;9.850;2023-08-31T13:35:40;7.30;;;2.00;;
77322;SDS011;66384;51.052;9.850;2023-08-31T13:38:12;3.50;;;1.80;;
77322;SDS011;66384;51.052;9.850;2023-08-31T13:40:44;3.10;;;1.80;;
77322;SDS011;66384;51.052;9.850;2023-08-31T13:43:17;2.60;;;1.80;;
77322;SDS011;66384;51.052;9.850;2023-08-31T13:45:49;3.10;;;1.90;;
77322;SDS011;66384;51.052;9.850;2023-08-31T13:48:21;3.30;;;1.70;;
77322;SDS011;66384;51.052;9.850;2023-08-31T13:50:54;3.70;;;1.80;;
77322;SDS011;66384;51.052;9.850;2023-08-31T13:53:26;2.50;;;1.80;;
77322;SDS011;66384;51.052;9.850;2023-08-31T13:55:58;4.50;;;1.80;;
77322;SDS011;66384;51.052;9.850;2023-08-31T13:58:29;2.70;;;1.80;;
77322;SDS011;66384;51.052;9.850;2023-08-31T14:01:01;4.60;;;2.00;;
77322;SDS011;66384;51.052;9.850;2023-08-31T14:03:33;6.80;;;1.80;;
77322;SDS011;66384;51.052;9.850;2023-08-31T14:06:05;5.00;;;2.00;;
77322;SDS011;66384;51.052;9.850;2023-08-31T14:08:37;3.10;;;1.70;;
77322;SDS011;66384;51.052;9.850;2023-08-31T14:11:09;5.00;;;2.50;;
77322;SDS011;66384;51.052;9.850;2023-08-31T14:13:42;4.40;;;1.80;;
77322;SDS011;66384;51.052;9.850;2023-08-31T14:16:15;3.40;;;1.70;;
77322;SDS011;66384;51.052;9.850;2023-08-31T14:18:47;4.60;;;1.80;;
77322;SDS011;66384;51.052;9.850;2023-08-31T14:21:18;4.00;;;2.10;;
77322;SDS011;66384;51.052;9.850;2023-08-31T14:23:50;2.90;;;1.70;;
77322;SDS011;66384;51.052;9.850;2023-08-31T14:26:24;3.60;;;2.00;;
77322;SDS011;66384;51.052;9.850;2023-08-31T14:28:55;3.30;;;2.00;;
77322;SDS011;66384;51.052;9.850;2023-08-31T14:31:29;2.90;;;2.30;;
77322;SDS011;66384;51.052;9.850;2023-08-31T14:34:03;2.70;;;2.10;;
77322;SDS011;66384;51.052;9.850;2023-08-31T14:36:36;2.60;;;1.60;;
77322;SDS011;66384;51.052;9.850;2023-08-31T14:39:09;8.00;;;1.90;;
77322;SDS011;66384;51.052;9.850;2023-08-31T14:41:44;4.70;;;1.70;;
77322;SDS011;66384;51.052;9.850;2023-08-31T14:44:18;2.00;;;1.40;;
77322;SDS011;66384;51.052;9.850;2023-08-31T14:46:51;5.60;;;2.00;;
77322;SDS011;66384;51.052;9.850;2023-08-31T14:49:24;3.10;;;1.60;;
77322;SDS011;66384;51.052;9.850;2023-08-31T14:51:55;3.20;;;1.70;;
77322;SDS011;66384;51.052;9.850;2023-08-31T14:54:34;3.50;;;1.70;;
77322;SDS011;66384;51.052;9.850;2023-08-31T14:57:05;2.40;;;1.50;;
77322;SDS011;66384;51.052;9.850;2023-08-31T14:59:37;2.10;;;1.50;;
77322;SDS011;66384;51.052;9.850;2023-08-31T15:02:09;4.60;;;1.80;;
77322;SDS011;66384;51.052;9.850;2023-08-31T15:04:45;3.30;;;1.60;;
77322;SDS011;66384;51.052;9.850;2023-08-31T15:07:20;3.50;;;2.20;;
77322;SDS011;66384;51.052;9.850;2023-08-31T15:09:52;3.40;;;1.50;;
77322;SDS011;66384;51.052;9.850;2023-08-31T15:12:25;7.50;;;5.70;;
77322;SDS011;66384;51.052;9.850;2023-08-31T15:14:57;14.30;;;10.30;;
77322;SDS011;66384;51.052;9.850;2023-08-31T15:17:28;4.70;;;3.90;;
77322;SDS011;66384;51.052;9.850;2023-08-31T15:20:00;4.20;;;2.20;;
77322;SDS011;66384;51.052;9.850;2023-08-31T15:22:37;3.30;;;2.30;;